Time;durP1;ratioP1;P1;durP2;ratioP2;P2;SDS_P1;SDS_P2;PMS_P1;PMS_P2;Temp;Humidity;BMP_temperature;BMP_pressure;BME280_temperature;BME280_humidity;BME280_pressure;Samples;Min_cycle;Max_cycle;Signal;HPM_P1;HPM_P2
2022/07/24 00:00:21;;;;;;;5.30;4.33;;;;;;;18.96;100.00;99533.17;1728996;82;21581;-69
2022/07/24 00:02:48;;;;;;;8.38;3.90;;;;;;;18.94;100.00;99525.81;1721826;82;21111;-69
2022/07/24 00:05:14;;;;;;;9.68;4.20;;;;;;;18.96;100.00;99524.90;1713657;82;21067;-67
2022/07/24 00:07:41;;;;;;;6.05;4.17;;;;;;;18.95;100.00;99528.01;1723804;82;21127;-68
2022/07/24 00:10:09;;;;;;;8.88;4.55;;;;;;;18.91;100.00;99525.67;1727758;82;21056;-69
2022/07/24 00:12:37;;;;;;;9.45;4.70;;;;;;;18.86;100.00;99524.71;1733074;82;21660;-69
2022/07/24 00:15:05;;;;;;;5.42;3.77;;;;;;;18.86;100.00;99528.03;1722216;82;21045;-68
2022/07/24 00:17:32;;;;;;;7.10;4.25;;;;;;;18.82;100.00;99516.05;1719999;82;21055;-69
2022/07/24 00:19:59;;;;;;;7.75;4.22;;;;;;;18.88;100.00;99523.02;1722664;82;21008;-68
2022/07/24 00:22:25;;;;;;;6.20;4.08;;;;;;;18.84;100.00;99517.92;1718774;82;21011;-70
2022/07/24 00:24:51;;;;;;;7.15;4.28;;;;;;;18.77;100.00;99523.95;1715360;82;21039;-69
2022/07/24 00:27:18;;;;;;;6.83;3.95;;;;;;;18.71;100.00;99525.25;1725126;82;21050;-70
2022/07/24 00:29:45;;;;;;;5.53;3.98;;;;;;;18.68;100.00;99522.34;1717350;82;21079;-69
2022/07/24 00:32:12;;;;;;;6.90;4.05;;;;;;;18.69;100.00;99522.59;1730304;82;21091;-69
2022/07/24 00:34:38;;;;;;;8.75;4.45;;;;;;;18.70;100.00;99526.98;1720096;82;21043;-69
2022/07/24 00:37:05;;;;;;;7.00;4.65;;;;;;;18.69;100.00;99526.16;1719023;82;21083;-68
2022/07/24 00:39:32;;;;;;;7.25;4.25;;;;;;;18.66;100.00;99519.94;1715699;82;21027;-69
2022/07/24 00:42:00;;;;;;;5.37;3.87;;;;;;;18.65;100.00;99524.39;1726975;82;21072;-69
2022/07/24 00:44:26;;;;;;;6.87;4.03;;;;;;;18.65;100.00;99527.14;1727640;82;21433;-69
2022/07/24 00:46:52;;;;;;;7.55;4.00;;;;;;;18.67;100.00;99522.91;1712411;82;21103;-68
2022/07/24 00:49:21;;;;;;;6.55;4.12;;;;;;;18.64;100.00;99519.44;1726792;82;21043;-68
2022/07/24 00:51:50;;;;;;;7.12;4.03;;;;;;;18.60;100.00;99524.59;1712162;82;21036;-69
2022/07/24 00:54:18;;;;;;;7.67;4.37;;;;;;;18.54;100.00;99530.02;1723148;82;20992;-69
2022/07/24 00:56:47;;;;;;;5.50;3.98;;;;;;;18.54;100.00;99534.16;1723338;82;21032;-68
2022/07/24 00:59:14;;;;;;;6.92;3.85;;;;;;;18.58;100.00;99540.63;1717596;82;20960;-69
2022/07/24 01:01:40;;;;;;;5.22;3.58;;;;;;;18.59;100.00;99527.91;1722957;82;21542;-69
2022/07/24 01:04:07;;;;;;;6.83;3.67;;;;;;;18.60;100.00;99538.38;1728277;82;21000;-69
2022/07/24 01:06:33;;;;;;;5.90;3.70;;;;;;;18.54;100.00;99530.83;1720698;82;21032;-68
2022/07/24 01:09:00;;;;;;;5.95;3.52;;;;;;;18.50;100.00;99531.78;1722988;82;20992;-69
2022/07/24 01:11:27;;;;;;;6.58;3.80;;;;;;;18.49;100.00;99532.94;1725998;82;21051;-68
2022/07/24 01:13:55;;;;;;;5.05;3.10;;;;;;;18.50;100.00;99531.22;1718908;82;21024;-68
2022/07/24 01:16:22;;;;;;;6.72;3.50;;;;;;;18.49;100.00;99525.48;1719402;82;21115;-69
2022/07/24 01:18:48;;;;;;;6.33;3.30;;;;;;;18.48;100.00;99529.93;1716731;82;20987;-68
2022/07/24 01:21:15;;;;;;;4.47;3.20;;;;;;;18.40;100.00;99526.88;1722925;82;21115;-68
2022/07/24 01:23:42;;;;;;;6.12;3.40;;;;;;;18.35;100.00;99527.63;1725609;82;21059;-69
2022/07/24 01:26:09;;;;;;;4.42;3.15;;;;;;;18.31;100.00;99534.36;1717463;82;21505;-68
2022/07/24 01:28:36;;;;;;;6.72;3.10;;;;;;;18.32;100.00;99535.15;1720832;82;20999;-69
2022/07/24 01:31:04;;;;;;;3.70;2.90;;;;;;;18.31;100.00;99532.98;1723774;82;21071;-68
2022/07/24 01:33:32;;;;;;;4.92;2.90;;;;;;;18.27;100.00;99533.39;1722033;82;21023;-69
2022/07/24 01:35:58;;;;;;;5.62;3.10;;;;;;;18.24;100.00;99531.86;1723169;82;21039;-69
2022/07/24 01:38:25;;;;;;;6.62;3.15;;;;;;;18.19;100.00;99528.70;1726387;82;21011;-69
2022/07/24 01:40:51;;;;;;;;;;;;;;;18.19;100.00;99533.40;1731302;82;21031;-68
2022/07/24 01:43:18;;;;;;;5.60;3.00;;;;;;;18.19;100.00;99527.33;1721234;82;20141;-69
2022/07/24 01:45:44;;;;;;;4.37;2.92;;;;;;;18.11;100.00;99521.25;1725172;82;21083;-69
2022/07/24 01:48:11;;;;;;;4.90;2.70;;;;;;;18.08;100.00;99530.17;1723691;82;21608;-69
2022/07/24 01:50:37;;;;;;;4.12;2.60;;;;;;;18.02;100.00;99516.34;1733691;82;21039;-69
2022/07/24 01:53:04;;;;;;;5.92;2.62;;;;;;;17.98;100.00;99514.55;1730808;82;21067;-69
2022/07/24 01:55:30;;;;;;;3.55;2.87;;;;;;;17.97;100.00;99510.17;1744323;82;21090;-68
2022/07/24 01:57:58;;;;;;;4.42;2.70;;;;;;;17.99;100.00;99507.36;1730292;82;21138;-69
2022/07/24 02:00:25;;;;;;;4.50;2.65;;;;;;;18.01;100.00;99516.09;1719363;82;21078;-69
2022/07/24 02:02:51;;;;;;;4.90;3.00;;;;;;;18.01;100.00;99514.70;1730912;82;21075;-68
2022/07/24 02:05:18;;;;;;;3.92;2.60;;;;;;;17.97;100.00;99519.81;1738638;82;21051;-68
2022/07/24 02:07:45;;;;;;;4.35;2.60;;;;;;;17.89;100.00;99510.41;1723151;82;21969;-69
2022/07/24 02:10:13;;;;;;;3.62;2.40;;;;;;;17.89;100.00;99518.11;1718735;82;21063;-68
2022/07/24 02:12:40;;;;;;;4.85;2.60;;;;;;;17.92;100.00;99519.99;1722853;82;21716;-69
2022/07/24 02:15:09;;;;;;;5.47;3.17;;;;;;;17.92;100.00;99524.94;1737700;82;21012;-68
2022/07/24 02:17:35;;;;;;;5.67;3.02;;;;;;;17.88;100.00;99524.78;1730712;82;21054;-67
2022/07/24 02:20:03;;;;;;;4.35;2.55;;;;;;;17.83;100.00;99522.73;1738446;82;20967;-69
2022/07/24 02:22:30;;;;;;;4.45;2.60;;;;;;;17.83;100.00;99524.93;1741364;82;21004;-68
2022/07/24 02:24:56;;;;;;;5.17;2.60;;;;;;;17.87;100.00;99529.22;1719609;82;21460;-69
2022/07/24 02:27:23;;;;;;;3.27;2.50;;;;;;;17.89;100.00;99528.31;1731836;82;21027;-68
2022/07/24 02:29:50;;;;;;;3.50;2.50;;;;;;;17.88;100.00;99530.28;1724843;82;21452;-68
2022/07/24 02:32:17;;;;;;;4.90;2.90;;;;;;;17.86;100.00;99529.78;1729483;82;21032;-68
2022/07/24 02:34:43;;;;;;;2.98;2.20;;;;;;;17.88;100.00;99528.09;1723849;82;21476;-68
2022/07/24 02:37:09;;;;;;;;;;;;;;;17.96;100.00;99525.09;1724064;82;21051;-68
2022/07/24 02:39:35;;;;;;;4.33;2.50;;;;;;;18.03;100.00;99519.91;1719702;82;20141;-68
2022/07/24 02:42:02;;;;;;;;;;;;;;;18.04;100.00;99523.69;1717875;82;21026;-67
2022/07/24 02:44:29;;;;;;;3.55;2.67;;;;;;;18.09;100.00;99531.80;1719368;82;20142;-68
2022/07/24 02:46:55;;;;;;;4.95;2.37;;;;;;;18.06;100.00;99524.76;1719209;82;21534;-67
2022/07/24 02:49:22;;;;;;;6.50;2.47;;;;;;;18.09;100.00;99523.54;1731756;82;21028;-68
2022/07/24 02:51:48;;;;;;;;;;;;;;;18.14;100.00;99519.22;1717017;82;21107;-67
2022/07/24 02:54:16;;;;;;;3.85;2.25;;;;;;;18.21;100.00;99522.28;1711350;82;20312;-66
2022/07/24 02:56:42;;;;;;;;;;;;;;;18.29;100.00;99517.33;1728412;82;21047;-67
2022/07/24 02:59:08;;;;;;;4.37;1.87;;;;;;;18.41;100.00;99515.28;1722852;82;20449;-68
2022/07/24 03:01:36;;;;;;;5.30;2.15;;;;;;;18.47;100.00;99515.91;1719910;82;21107;-68
2022/07/24 03:04:03;;;;;;;;;;;;;;;18.52;100.00;99512.45;1732300;82;21003;-69
2022/07/24 03:06:30;;;;;;;4.40;2.30;;;;;;;18.59;100.00;99520.20;1729167;82;20137;-68
2022/07/24 03:08:56;;;;;;;4.87;2.05;;;;;;;18.61;100.00;99514.59;1721725;82;21035;-68
2022/07/24 03:11:23;;;;;;;3.52;2.10;;;;;;;18.70;100.00;99512.63;1721649;82;21044;-68
2022/07/24 03:13:49;;;;;;;4.58;1.87;;;;;;;18.80;100.00;99509.50;1713142;82;21116;-68
2022/07/24 03:16:18;;;;;;;4.08;2.00;;;;;;;18.96;100.00;99504.78;1732440;82;21102;-68
2022/07/24 03:18:49;;;;;;;3.40;2.10;;;;;;;19.05;100.00;99506.94;1722196;82;21019;-68
2022/07/24 03:21:14;;;;;;;4.42;2.27;;;;;;;19.12;100.00;99496.19;1716111;82;21071;-68
2022/07/24 03:23:40;;;;;;;7.17;2.33;;;;;;;19.18;100.00;99489.32;1715778;82;20991;-68
2022/07/24 03:26:07;;;;;;;3.33;2.05;;;;;;;19.25;100.00;99490.41;1713816;82;21012;-68
2022/07/24 03:28:33;;;;;;;6.72;2.10;;;;;;;19.38;100.00;99496.23;1717732;82;21461;-68
2022/07/24 03:31:00;;;;;;;4.58;2.37;;;;;;;19.54;100.00;99495.68;1721968;82;21153;-68
2022/07/24 03:33:28;;;;;;;7.05;2.05;;;;;;;19.66;100.00;99489.64;1727569;82;21561;-67
2022/07/24 03:35:55;;;;;;;6.17;2.20;;;;;;;19.71;100.00;99481.73;1740264;82;21018;-67
2022/07/24 03:38:21;;;;;;;6.10;2.17;;;;;;;19.79;100.00;99486.38;1730323;82;20975;-68
2022/07/24 03:40:47;;;;;;;4.17;2.33;;;;;;;19.95;100.00;99501.73;1742344;82;21684;-68
2022/07/24 03:43:15;;;;;;;5.55;2.25;;;;;;;20.08;100.00;99501.47;1740488;82;21499;-68
2022/07/24 03:45:41;;;;;;;4.50;2.17;;;;;;;20.28;100.00;99499.25;1736988;82;21038;-68
2022/07/24 03:48:07;;;;;;;8.05;2.20;;;;;;;20.48;100.00;99490.64;1726976;82;21031;-68
2022/07/24 03:50:34;;;;;;;5.65;2.25;;;;;;;20.71;100.00;99493.22;1726506;82;21228;-68
2022/07/24 03:53:00;;;;;;;5.75;2.27;;;;;;;20.98;100.00;99492.28;1739827;82;21023;-68
2022/07/24 03:55:27;;;;;;;5.53;2.08;;;;;;;21.26;100.00;99482.95;1740173;82;21058;-69
2022/07/24 03:57:53;;;;;;;6.37;2.10;;;;;;;21.56;100.00;99485.44;1730167;82;21098;-67
2022/07/24 04:00:19;;;;;;;7.28;2.00;;;;;;;21.83;100.00;99484.06;1731855;82;20955;-68
2022/07/24 04:02:46;;;;;;;5.50;1.98;;;;;;;22.11;100.00;99484.09;1738636;80;21095;-68
2022/07/24 04:05:13;;;;;;;5.92;2.00;;;;;;;22.41;100.00;99478.96;1738067;82;21026;-66
2022/07/24 04:07:41;;;;;;;6.60;2.00;;;;;;;22.73;100.00;99477.84;1733730;82;21094;-66
2022/07/24 04:10:08;;;;;;;3.92;1.98;;;;;;;23.08;100.00;99485.41;1741089;82;21027;-67
2022/07/24 04:12:35;;;;;;;5.22;1.95;;;;;;;23.78;100.00;99466.75;1733035;82;21043;-66
2022/07/24 04:15:01;;;;;;;5.70;1.82;;;;;;;23.78;100.00;99466.75;1733495;82;21014;-66
2022/07/24 04:17:28;;;;;;;4.92;1.87;;;;;;;24.17;100.00;99471.14;1736418;82;21068;-66
2022/07/24 04:19:56;;;;;;;4.05;1.90;;;;;;;24.52;100.00;99456.27;1727103;82;21019;-66
2022/07/24 04:22:22;;;;;;;6.30;2.02;;;;;;;24.82;100.00;99457.19;1733190;82;21051;-66
2022/07/24 04:24:49;;;;;;;4.08;1.90;;;;;;;25.14;100.00;99453.53;1732233;82;21047;-67
2022/07/24 04:27:16;;;;;;;4.12;2.00;;;;;;;25.48;100.00;99451.61;1729189;82;21574;-67
2022/07/24 04:29:42;;;;;;;4.17;1.62;;;;;;;25.67;100.00;99443.14;1729951;82;21014;-67
2022/07/24 04:32:09;;;;;;;4.75;1.70;;;;;;;25.87;100.00;99439.00;1735860;81;21082;-67
2022/07/24 04:34:35;;;;;;;3.72;1.52;;;;;;;26.07;100.00;99439.63;1742472;82;20970;-68
2022/07/24 04:37:01;;;;;;;5.65;1.77;;;;;;;26.26;100.00;99421.31;1733300;82;21589;-68
2022/07/24 04:39:28;;;;;;;5.67;1.70;;;;;;;26.54;100.00;99422.97;1722660;83;21035;-68
2022/07/24 04:41:55;;;;;;;2.62;1.40;;;;;;;26.75;100.00;99423.73;1729340;82;21066;-68
2022/07/24 04:44:21;;;;;;;2.72;1.30;;;;;;;26.94;100.00;99419.33;1736082;82;21046;-67
2022/07/24 04:46:48;;;;;;;2.77;1.22;;;;;;;27.04;100.00;99414.41;1732311;82;21074;-68
2022/07/24 04:49:15;;;;;;;4.85;1.47;;;;;;;27.17;100.00;99414.90;1746106;80;21035;-67
2022/07/24 04:51:41;;;;;;;2.62;1.40;;;;;;;27.21;100.00;99417.89;1735912;82;21561;-68
2022/07/24 04:54:09;;;;;;;4.30;1.40;;;;;;;27.14;100.00;99418.45;1745393;82;21004;-68
2022/07/24 04:56:36;;;;;;;3.52;1.20;;;;;;;27.08;100.00;99423.61;1734137;82;21636;-67
2022/07/24 04:59:02;;;;;;;4.28;1.32;;;;;;;27.09;100.00;99425.81;1737963;82;20986;-69
2022/07/24 05:01:30;;;;;;;3.37;1.42;;;;;;;27.05;100.00;99421.60;1731987;82;21050;-68
2022/07/24 05:03:58;;;;;;;3.05;1.30;;;;;;;27.05;100.00;99422.19;1735918;82;21038;-68
2022/07/24 05:06:25;;;;;;;2.02;1.25;;;;;;;27.07;100.00;99430.97;1736667;82;21637;-67
2022/07/24 05:08:51;;;;;;;5.50;1.30;;;;;;;27.10;100.00;99430.99;1747337;81;21078;-69
2022/07/24 05:11:17;;;;;;;3.92;1.20;;;;;;;27.14;100.00;99423.44;1736180;82;21103;-68
2022/07/24 05:13:45;;;;;;;4.10;1.07;;;;;;;27.23;100.00;99425.09;1732015;82;20999;-68
2022/07/24 05:16:12;;;;;;;2.02;1.17;;;;;;;27.33;100.00;99415.96;1733226;82;21020;-67
2022/07/24 05:18:38;;;;;;;2.47;1.00;;;;;;;27.47;100.00;99416.88;1733000;82;21083;-68
2022/07/24 05:29:26;;;;;;;;;;;;;;;28.03;100.00;99417.66;1809140;79;23498;-65
2022/07/24 05:31:54;;;;;;;4.97;0.93;;;;;;;28.05;100.00;99420.89;1767892;80;20491;-65
2022/07/24 05:34:22;;;;;;;4.03;1.37;;;;;;;28.17;100.00;99426.72;1752152;81;21014;-65
2022/07/24 05:36:48;;;;;;;2.47;0.90;;;;;;;28.41;100.00;99418.17;1750440;81;21103;-64
2022/07/24 05:39:15;;;;;;;3.65;0.88;;;;;;;28.58;100.00;99420.17;1753263;82;20988;-64
2022/07/24 05:41:41;;;;;;;3.02;0.88;;;;;;;28.79;100.00;99429.20;1748590;80;21696;-66
2022/07/24 05:44:08;;;;;;;2.55;0.90;;;;;;;29.05;100.00;99429.56;1743858;81;21085;-65
2022/07/24 05:46:35;;;;;;;2.15;1.12;;;;;;;29.32;100.00;99429.95;1749738;80;21067;-67
2022/07/24 05:49:01;;;;;;;1.80;0.95;;;;;;;29.50;100.00;99432.10;1754911;82;21016;-66
2022/07/24 05:51:29;;;;;;;4.47;1.00;;;;;;;29.67;98.10;99430.43;1742966;80;21007;-66
2022/07/24 05:53:56;;;;;;;5.72;1.12;;;;;;;29.61;91.14;99439.08;1744865;81;21006;-65
2022/07/24 05:56:22;;;;;;;3.25;1.00;;;;;;;29.48;91.90;99432.29;1743698;80;21076;-66
2022/07/24 05:58:49;;;;;;;3.33;0.90;;;;;;;29.42;92.33;99429.72;1748636;81;21002;-65
2022/07/24 06:01:15;;;;;;;2.45;0.90;;;;;;;29.32;95.64;99427.75;1752453;80;21001;-64
2022/07/24 06:03:42;;;;;;;1.70;0.62;;;;;;;29.10;94.93;99415.16;1744823;81;21000;-65
2022/07/24 06:06:09;;;;;;;2.77;0.90;;;;;;;28.99;91.65;99420.56;1753667;80;21630;-66
2022/07/24 06:08:35;;;;;;;2.83;0.93;;;;;;;28.93;92.86;99422.19;1745271;81;20976;-65
2022/07/24 06:11:01;;;;;;;3.70;0.70;;;;;;;28.85;92.67;99417.19;1747794;81;20962;-64
2022/07/24 06:13:29;;;;;;;4.12;0.93;;;;;;;28.90;97.06;99416.80;1748510;81;21050;-65
2022/07/24 06:15:57;;;;;;;4.92;0.88;;;;;;;29.06;100.00;99409.34;1747954;80;21558;-67
2022/07/24 06:18:24;;;;;;;3.60;0.70;;;;;;;29.27;97.41;99412.73;1749503;81;21425;-65
2022/07/24 06:20:51;;;;;;;4.65;0.88;;;;;;;29.50;91.73;99412.47;1744358;81;20966;-65
2022/07/24 06:23:17;;;;;;;2.70;0.90;;;;;;;29.76;93.81;99409.73;1745669;80;21019;-66
2022/07/24 06:25:44;;;;;;;2.95;0.70;;;;;;;30.02;85.09;99399.41;1743663;81;21522;-66
2022/07/24 06:28:10;;;;;;;2.30;0.70;;;;;;;30.11;77.00;99408.16;1747190;81;21109;-67
2022/07/24 06:30:37;;;;;;;3.08;0.72;;;;;;;30.12;76.72;99400.55;1748959;82;21494;-67
2022/07/24 06:33:04;;;;;;;2.15;0.95;;;;;;;30.18;78.06;99400.93;1743254;80;21548;-66
2022/07/24 06:35:36;;;;;;;5.35;1.00;;;;;;;30.33;73.77;99403.81;1747132;82;21083;-66
2022/07/24 06:38:00;;;;;;;2.85;1.12;;;;;;;30.36;70.17;99395.36;1681142;84;21657;-66
2022/07/24 06:40:27;;;;;;;2.87;0.80;;;;;;;30.45;73.17;99385.11;1684443;85;21071;-67
2022/07/24 06:42:53;;;;;;;3.00;0.80;;;;;;;30.61;70.64;99382.55;1676791;83;21066;-66
2022/07/24 06:45:20;;;;;;;4.62;1.10;;;;;;;30.76;66.24;99381.22;1687452;85;20960;-67
2022/07/24 06:47:47;;;;;;;3.22;0.90;;;;;;;30.85;63.61;99375.13;1690927;83;21035;-64
2022/07/24 06:50:15;;;;;;;4.22;0.90;;;;;;;30.94;70.40;99376.83;1691235;84;21015;-66
2022/07/24 06:52:42;;;;;;;2.12;0.85;;;;;;;31.18;68.71;99367.98;1689732;83;21094;-68
2022/07/24 06:55:09;;;;;;;6.35;1.00;;;;;;;31.39;64.44;99367.10;1690233;85;21586;-69
2022/07/24 06:57:36;;;;;;;4.62;0.80;;;;;;;31.45;64.94;99363.23;1688738;83;21086;-67
2022/07/24 07:00:08;;;;;;;3.47;1.00;;;;;;;31.56;64.76;99362.52;1683025;85;21494;-66
2022/07/24 07:02:35;;;;;;;3.50;0.88;;;;;;;31.63;59.44;99359.61;1666690;84;21090;-65
2022/07/24 07:05:07;;;;;;;4.10;0.95;;;;;;;31.66;59.43;99350.93;1658750;86;21055;-66
2022/07/24 07:07:34;;;;;;;3.45;0.78;;;;;;;31.72;60.64;99347.22;1686815;83;21645;-65
2022/07/24 07:10:01;;;;;;;3.00;1.20;;;;;;;31.89;61.59;99348.17;1664160;85;21047;-66
2022/07/24 07:12:27;;;;;;;2.47;0.90;;;;;;;32.13;61.67;99348.47;1685293;83;21043;-67
2022/07/24 07:14:54;;;;;;;2.52;0.80;;;;;;;32.26;56.69;99347.25;1681205;85;21525;-68
2022/07/24 07:17:21;;;;;;;2.58;0.70;;;;;;;32.25;54.51;99346.45;1691606;83;21160;-68
2022/07/24 07:19:48;;;;;;;3.27;0.80;;;;;;;32.25;57.87;99342.22;1691270;84;21147;-66
2022/07/24 07:22:15;;;;;;;3.77;0.80;;;;;;;32.43;54.07;99344.75;1689823;83;21114;-68
2022/07/24 07:24:41;;;;;;;2.67;0.88;;;;;;;32.52;51.85;99342.19;1681931;83;21035;-69
2022/07/24 07:27:08;;;;;;;3.15;0.80;;;;;;;32.58;52.44;99341.88;1681259;84;21653;-67
2022/07/24 07:29:35;;;;;;;2.50;0.78;;;;;;;32.67;51.80;99342.13;1673632;84;21031;-66
2022/07/24 07:32:01;;;;;;;4.22;0.78;;;;;;;32.80;50.29;99348.77;1679561;83;21546;-66
2022/07/24 07:34:27;;;;;;;2.00;0.80;;;;;;;33.00;50.69;99357.23;1685934;84;21066;-64
2022/07/24 07:36:54;;;;;;;2.27;0.85;;;;;;;33.10;49.44;99343.54;1739027;81;21031;-65
2022/07/24 07:39:20;;;;;;;2.52;0.80;;;;;;;33.16;48.40;99350.30;1741273;81;21027;-65
2022/07/24 07:41:47;;;;;;;2.67;0.80;;;;;;;33.12;48.20;99353.82;1736656;81;21078;-66
2022/07/24 07:44:14;;;;;;;3.17;1.00;;;;;;;33.02;48.66;99349.93;1711442;82;21200;-65
2022/07/24 07:46:40;;;;;;;5.50;1.02;;;;;;;33.01;51.46;99349.77;1700323;82;21554;-65
2022/07/24 07:49:07;;;;;;;3.70;0.80;;;;;;;33.07;49.77;99343.61;1666241;85;21373;-68
2022/07/24 07:51:33;;;;;;;3.37;0.90;;;;;;;33.15;51.03;99349.33;1723646;82;21406;-68
2022/07/24 07:54:01;;;;;;;1.45;0.78;;;;;;;33.29;52.00;99342.80;1728587;82;21052;-68
2022/07/24 07:56:30;;;;;;;2.90;1.10;;;;;;;33.50;50.58;99341.55;1727416;81;21075;-67
2022/07/24 07:58:56;;;;;;;2.85;0.93;;;;;;;33.70;49.78;99339.52;1736221;81;21098;-68
2022/07/24 08:01:23;;;;;;;2.95;0.90;;;;;;;33.86;46.73;99332.51;1726557;82;21050;-69
2022/07/24 08:03:49;;;;;;;4.03;0.80;;;;;;;33.85;47.42;99336.56;1723168;82;21037;-67
2022/07/24 08:06:17;;;;;;;4.20;0.90;;;;;;;33.95;47.98;99334.71;1732354;81;21626;-69
2022/07/24 08:08:44;;;;;;;1.82;0.80;;;;;;;33.99;44.78;99329.17;1728978;81;21042;-66
2022/07/24 08:11:10;;;;;;;3.45;0.85;;;;;;;33.93;44.95;99331.55;1726271;81;21008;-65
2022/07/24 08:13:36;;;;;;;3.15;0.98;;;;;;;33.85;43.34;99332.94;1729975;81;21054;-67
2022/07/24 08:16:04;;;;;;;3.90;0.80;;;;;;;33.61;45.08;99335.67;1727454;82;20997;-66
2022/07/24 08:18:31;;;;;;;1.87;0.88;;;;;;;33.49;46.48;99328.05;1739966;81;21521;-68
2022/07/24 08:20:58;;;;;;;2.77;1.30;;;;;;;33.58;48.00;99337.96;1737431;81;20989;-67
2022/07/24 08:23:25;;;;;;;4.47;0.80;;;;;;;33.63;45.76;99333.23;1729913;81;21033;-66
2022/07/24 08:25:51;;;;;;;4.67;0.93;;;;;;;33.63;44.95;99335.44;1706043;82;21531;-68
2022/07/24 08:28:19;;;;;;;3.47;0.80;;;;;;;33.72;47.52;99330.01;1741086;81;20999;-68
2022/07/24 08:30:46;;;;;;;3.20;0.75;;;;;;;33.81;45.94;99318.91;1741682;81;21470;-67
2022/07/24 08:33:13;;;;;;;9.38;1.10;;;;;;;33.88;45.16;99322.17;1731914;82;20973;-67
2022/07/24 08:35:39;;;;;;;2.90;0.80;;;;;;;33.89;46.58;99316.72;1735793;81;21064;-67
2022/07/24 08:38:06;;;;;;;3.42;1.00;;;;;;;33.94;45.08;99320.44;1720633;81;21087;-67
2022/07/24 08:40:36;;;;;;;3.35;0.85;;;;;;;33.74;42.09;99321.89;1721068;81;21031;-67
2022/07/24 08:43:05;;;;;;;2.83;0.90;;;;;;;33.38;42.88;99316.80;1721093;81;21566;-67
2022/07/24 08:45:37;;;;;;;1.85;0.80;;;;;;;33.09;43.22;99313.74;1729264;81;20964;-67
2022/07/24 08:48:04;;;;;;;3.70;1.07;;;;;;;33.07;44.75;99310.58;1732051;81;21106;-68
2022/07/24 08:50:33;;;;;;;4.75;0.90;;;;;;;33.18;47.55;99311.80;1696664;84;21323;-68
2022/07/24 08:53:02;;;;;;;2.83;0.90;;;;;;;33.24;46.48;99313.67;1667864;86;21040;-67
2022/07/24 08:55:29;;;;;;;2.37;0.72;;;;;;;33.38;45.76;99309.14;1722458;82;20992;-66
2022/07/24 08:57:57;;;;;;;4.03;0.90;;;;;;;33.59;45.49;99315.55;1720239;81;21031;-66
2022/07/24 09:00:24;;;;;;;2.33;0.93;;;;;;;33.63;45.58;99313.47;1725063;81;21094;-67
2022/07/24 09:02:51;;;;;;;3.35;0.80;;;;;;;33.69;46.38;99313.95;1738209;81;21032;-67
2022/07/24 09:05:17;;;;;;;5.65;0.80;;;;;;;33.41;43.65;99311.70;1734111;81;21011;-67
2022/07/24 09:07:44;;;;;;;5.30;1.00;;;;;;;33.04;43.92;99308.02;1724310;82;21553;-68
2022/07/24 09:10:12;;;;;;;5.05;0.90;;;;;;;32.86;46.73;99309.58;1730977;82;21024;-67
2022/07/24 09:12:41;;;;;;;3.27;0.90;;;;;;;32.84;49.11;99321.92;1704867;82;21040;-66
2022/07/24 09:15:23;;;;;;;4.83;1.35;;;;;;;32.94;47.07;99320.30;1729726;81;20951;-68
2022/07/24 09:17:54;;;;;;;5.15;1.00;;;;;;;32.97;47.31;99323.66;1734830;82;21100;-68
2022/07/24 09:20:23;;;;;;;8.25;1.12;;;;;;;32.84;47.67;99319.87;1727123;82;21017;-69
2022/07/24 09:22:50;;;;;;;3.35;1.02;;;;;;;32.27;47.18;99328.53;1735490;82;20988;-67
2022/07/24 09:25:25;;;;;;;3.20;0.75;;;;;;;31.93;47.42;99320.78;1722716;81;21470;-67
2022/07/24 09:28:01;;;;;;;3.33;1.10;;;;;;;31.76;49.76;99328.27;1720958;82;21613;-71
2022/07/24 09:30:43;;;;;;;8.60;1.20;;;;;;;31.43;50.54;99324.88;1744351;82;21046;-68
2022/07/24 09:33:18;;;;;;;5.72;1.20;;;;;;;30.97;54.46;99331.05;1744260;82;21582;-71
2022/07/24 09:35:48;;;;;;;4.22;1.07;;;;;;;30.60;57.36;99324.80;1734519;80;21546;-72
2022/07/24 09:38:20;;;;;;;3.12;1.10;;;;;;;30.33;60.71;99330.80;1738657;82;21470;-68
2022/07/24 09:40:53;;;;;;;5.12;1.60;;;;;;;30.20;61.38;99322.10;1747156;80;21012;-69
2022/07/24 09:43:24;;;;;;;4.90;1.20;;;;;;;30.13;64.83;99336.99;1741399;81;21506;-68
2022/07/24 09:47:33;;;;;;;4.85;1.20;;;;;;;30.06;68.35;99327.83;1771435;79;23220;-67
2022/07/24 09:50:11;;;;;;;1.95;1.05;;;;;;;29.82;70.19;99332.97;1733040;82;21475;-67
2022/07/24 09:52:38;;;;;;;4.87;1.00;;;;;;;29.69;71.34;99335.44;1725371;82;21051;-67
2022/07/24 09:55:07;;;;;;;5.87;1.10;;;;;;;29.60;77.08;99337.91;1732355;82;21370;-68
2022/07/24 09:57:35;;;;;;;5.28;1.10;;;;;;;29.53;79.76;99333.73;1730146;82;21056;-71
2022/07/24 10:00:07;;;;;;;6.75;1.12;;;;;;;29.42;77.43;99330.18;1679855;83;20979;-68
2022/07/24 10:02:34;;;;;;;5.12;1.20;;;;;;;29.33;84.25;99334.04;1725774;82;21082;-67
2022/07/24 10:05:02;;;;;;;4.65;1.30;;;;;;;29.29;82.19;99341.06;1734683;82;20979;-68
2022/07/24 10:07:29;;;;;;;3.47;1.20;;;;;;;29.14;82.13;99339.48;1729645;82;21109;-66
2022/07/24 10:09:57;;;;;;;3.90;1.05;;;;;;;29.06;90.89;99337.30;1742349;82;20995;-67
2022/07/24 10:12:28;;;;;;;4.72;1.52;;;;;;;29.11;95.75;99333.28;1734475;80;21043;-68
2022/07/24 10:14:59;;;;;;;9.28;1.85;;;;;;;29.14;88.00;99331.06;1731197;82;20967;-68
2022/07/24 10:17:36;;;;;;;4.25;1.30;;;;;;;29.10;89.08;99331.08;1734520;82;21082;-68
2022/07/24 10:20:05;;;;;;;5.47;1.37;;;;;;;29.13;94.74;99335.06;1721890;82;21023;-66
2022/07/24 10:22:40;;;;;;;2.35;1.20;;;;;;;29.16;89.80;99330.05;1732881;81;20995;-69
2022/07/24 10:25:09;;;;;;;5.77;1.70;;;;;;;29.20;88.63;99330.03;1735998;82;21515;-68
2022/07/24 10:27:37;;;;;;;7.95;1.72;;;;;;;29.27;91.70;99326.64;1744525;82;20995;-69
2022/07/24 10:30:07;;;;;;;5.08;1.52;;;;;;;29.35;92.06;99319.00;1748121;80;21015;-70
2022/07/24 10:32:35;;;;;;;2.77;1.52;;;;;;;29.38;84.79;99316.77;1732755;82;21019;-71
2022/07/24 10:35:24;;;;;;;6.37;1.90;;;;;;;29.38;82.30;99308.36;1737591;82;20919;-68
2022/07/24 10:38:11;;;;;;;5.50;2.05;;;;;;;29.31;84.43;99305.59;1700871;83;21035;-69
2022/07/24 10:40:45;;;;;;;4.67;2.20;;;;;;;29.31;86.35;99307.00;1687429;82;21058;-68
2022/07/24 10:43:17;;;;;;;5.60;3.55;;;;;;;29.31;91.65;99305.00;1736660;82;20990;-73
2022/07/24 10:45:57;;;;;;;4.65;2.80;;;;;;;29.26;92.22;99306.00;1729871;82;21083;-69
2022/07/24 10:48:26;;;;;;;5.85;3.12;;;;;;;29.18;95.68;99303.83;1740610;81;21026;-72
2022/07/24 10:51:15;;;;;;;5.42;3.45;;;;;;;29.22;100.00;99303.22;1738293;82;20999;-70
2022/07/24 10:53:53;;;;;;;6.33;4.03;;;;;;;29.17;100.00;99295.22;1735958;80;21026;-70
2022/07/24 10:56:41;;;;;;;6.97;4.37;;;;;;;28.93;100.00;99305.92;1743921;82;21094;-72
2022/07/24 10:59:14;;;;;;;7.42;4.50;;;;;;;28.69;100.00;99300.59;1735300;81;20964;-70
2022/07/24 11:01:47;;;;;;;7.40;4.37;;;;;;;28.43;100.00;99305.98;1734231;82;21102;-69
2022/07/24 11:04:24;;;;;;;7.15;4.70;;;;;;;28.25;100.00;99306.59;1734429;82;21014;-67
2022/07/24 11:07:01;;;;;;;6.35;4.37;;;;;;;28.05;100.00;99310.37;1734060;82;21590;-70
2022/07/24 11:09:28;;;;;;;7.67;4.45;;;;;;;27.93;100.00;99305.16;1710859;82;21031;-68
2022/07/24 11:12:00;;;;;;;6.97;4.92;;;;;;;27.78;100.00;99301.32;1744954;82;21027;-68
2022/07/24 11:14:42;;;;;;;7.53;4.37;;;;;;;27.51;100.00;99314.86;1743596;82;21066;-69
2022/07/24 11:17:42;;;;;;;8.03;6.10;;;;;;;27.16;100.00;99311.31;1736923;82;21094;-67
2022/07/24 11:20:17;;;;;;;9.03;5.90;;;;;;;26.94;100.00;99310.40;1731091;82;20983;-68
2022/07/24 11:22:49;;;;;;;7.60;5.45;;;;;;;26.91;100.00;99314.58;1729194;82;21050;-73
2022/07/24 11:25:22;;;;;;;6.80;5.08;;;;;;;26.88;100.00;99306.39;1736052;82;21019;-71
2022/07/24 11:28:09;;;;;;;11.15;5.28;;;;;;;26.74;100.00;99313.26;1750470;82;21011;-70
2022/07/24 11:30:35;;;;;;;;;;;;;;;26.54;100.00;99309.92;1734682;82;20951;-68
2022/07/24 11:33:02;;;;;;;8.35;6.12;;;;;;;26.29;100.00;99311.73;1694329;83;20097;-74
2022/07/24 11:35:36;;;;;;;7.92;5.65;;;;;;;26.07;100.00;99312.73;1708716;82;21379;-73
2022/07/24 11:38:07;;;;;;;10.40;5.53;;;;;;;25.97;100.00;99310.64;1743336;82;21093;-72
2022/07/24 11:40:34;;;;;;;9.18;5.50;;;;;;;25.94;100.00;99316.97;1738101;82;21384;-69
2022/07/24 11:43:04;;;;;;;7.50;5.60;;;;;;;25.94;100.00;99326.73;1741251;82;21115;-69
2022/07/24 11:45:31;;;;;;;6.53;5.30;;;;;;;25.88;100.00;99328.27;1745036;82;20967;-73